Terminal Aerodrome Forecast
Issued by NWS Sterling, VA

Current Version | Previous Version | Graphics & Text | Print | Product List | Glossary On
Versions: 1 2 3 4 5 6 7 8 9 10 11 12 13 14 15 16 17 18 19 20 21 22 23 24 25 26 27 28 29
078
FTUS41 KLWX 281130
TAFDCA
TAF
KDCA 281130Z 2812/2912 VRB03KT 5SM BR BKN035
     FM281500 21006KT P6SM -SHRA BKN015
     FM281800 20006KT P6SM -SHRA OVC040
     FM282200 24006KT P6SM -SHRA BKN040
     FM290000 27004KT P6SM BKN050
     FM290300 31008KT P6SM BKN060
     FM290600 34007KT P6SM BKN008
     FM290900 35009KT P6SM SCT025
     FM291000 35008KT P6SM SCT025=

USA.gov is the U.S. government's official web portal to all federal, state and local government web resources and services.